sensor_id;sensor_type;location;lat;lon;timestamp;pressure;altitude;pressure_sealevel;temperature;humidity
21594;BME280;10959;51.328;7.322;2023-06-22T00:02:15;72987.53;;;-147.06;40.45
21594;BME280;10959;51.328;7.322;2023-06-22T00:04:41;72979.34;;;-147.06;40.54
21594;BME280;10959;51.328;7.322;2023-06-22T00:07:07;72985.50;;;-147.06;40.54
21594;BME280;10959;51.328;7.322;2023-06-22T00:09:35;72973.22;;;-147.06;40.95
21594;BME280;10959;51.328;7.322;2023-06-22T00:12:03;72979.34;;;-147.06;40.64
21594;BME280;10959;51.328;7.322;2023-06-22T00:14:31;72971.16;;;-147.06;40.37
21594;BME280;10959;51.328;7.322;2023-06-22T00:16:57;72975.25;;;-147.06;40.73
21594;BME280;10959;51.328;7.322;2023-06-22T00:19:24;72971.16;;;-147.06;40.59
21594;BME280;10959;51.328;7.322;2023-06-22T00:21:51;72979.34;;;-147.06;40.72
21594;BME280;10959;51.328;7.322;2023-06-22T00:24:19;72975.25;;;-147.06;40.77
21594;BME280;10959;51.328;7.322;2023-06-22T00:26:45;72975.25;;;-147.06;40.66
21594;BME280;10959;51.328;7.322;2023-06-22T00:29:13;72979.34;;;-147.06;40.53
21594;BME280;10959;51.328;7.322;2023-06-22T00:31:41;72989.59;;;-147.06;40.57
21594;BME280;10959;51.328;7.322;2023-06-22T00:34:08;72995.72;;;-147.06;40.89
21594;BME280;10959;51.328;7.322;2023-06-22T00:36:35;73008.03;;;-147.06;40.93
21594;BME280;10959;51.328;7.322;2023-06-22T00:39:02;73012.13;;;-147.06;40.85
21594;BME280;10959;51.328;7.322;2023-06-22T00:41:29;73003.94;;;-147.06;41.03
21594;BME280;10959;51.328;7.322;2023-06-22T00:43:55;72995.72;;;-147.06;40.66
21594;BME280;10959;51.328;7.322;2023-06-22T00:46:22;72991.63;;;-147.06;40.80
21594;BME280;10959;51.328;7.322;2023-06-22T00:48:51;72995.72;;;-147.06;40.85
21594;BME280;10959;51.328;7.322;2023-06-22T00:51:22;72987.53;;;-147.06;40.78
21594;BME280;10959;51.328;7.322;2023-06-22T00:53:49;72995.72;;;-147.06;40.95
21594;BME280;10959;51.328;7.322;2023-06-22T00:56:16;72997.78;;;-147.06;40.68
21594;BME280;10959;51.328;7.322;2023-06-22T00:58:44;73005.97;;;-147.06;40.66
21594;BME280;10959;51.328;7.322;2023-06-22T01:01:12;73008.03;;;-147.06;41.07
21594;BME280;10959;51.328;7.322;2023-06-22T01:03:39;73005.97;;;-147.06;40.96
21594;BME280;10959;51.328;7.322;2023-06-22T01:06:10;73010.06;;;-147.06;41.05
21594;BME280;10959;51.328;7.322;2023-06-22T01:08:46;73018.25;;;-147.06;40.82
21594;BME280;10959;51.328;7.322;2023-06-22T01:11:19;73012.13;;;-147.06;40.95
21594;BME280;10959;51.328;7.322;2023-06-22T01:13:52;73012.13;;;-147.06;40.94
21594;BME280;10959;51.328;7.322;2023-06-22T01:16:25;73014.16;;;-147.06;41.40
21594;BME280;10959;51.328;7.322;2023-06-22T01:18:55;73028.50;;;-147.06;41.84
21594;BME280;10959;51.328;7.322;2023-06-22T01:21:28;73042.84;;;-147.06;41.99
21594;BME280;10959;51.328;7.322;2023-06-22T01:24:09;73059.22;;;-147.06;42.29
21594;BME280;10959;51.328;7.322;2023-06-22T01:26:38;73057.19;;;-147.06;41.97
21594;BME280;10959;51.328;7.322;2023-06-22T01:29:10;73057.19;;;-147.06;42.06
21594;BME280;10959;51.328;7.322;2023-06-22T01:31:39;73044.88;;;-147.06;41.96
21594;BME280;10959;51.328;7.322;2023-06-22T01:34:08;73044.88;;;-147.06;42.08
21594;BME280;10959;51.328;7.322;2023-06-22T01:36:36;73048.97;;;-147.06;42.43
21594;BME280;10959;51.328;7.322;2023-06-22T01:39:05;73044.88;;;-147.06;42.59
21594;BME280;10959;51.328;7.322;2023-06-22T01:41:35;73057.19;;;-147.06;42.82
21594;BME280;10959;51.328;7.322;2023-06-22T01:44:03;73057.19;;;-147.06;42.94
21594;BME280;10959;51.328;7.322;2023-06-22T01:46:33;73057.19;;;-147.06;42.66
21594;BME280;10959;51.328;7.322;2023-06-22T01:49:01;73063.31;;;-147.06;42.88
21594;BME280;10959;51.328;7.322;2023-06-22T01:51:28;73065.38;;;-147.06;43.13
21594;BME280;10959;51.328;7.322;2023-06-22T01:53:54;73065.38;;;-147.06;42.73
21594;BME280;10959;51.328;7.322;2023-06-22T01:56:21;73061.28;;;-147.06;43.04
21594;BME280;10959;51.328;7.322;2023-06-22T01:58:50;73057.19;;;-147.06;42.86
21594;BME280;10959;51.328;7.322;2023-06-22T02:01:26;73073.56;;;-147.06;43.18
21594;BME280;10959;51.328;7.322;2023-06-22T02:04:05;73089.94;;;-147.06;43.22
21594;BME280;10959;51.328;7.322;2023-06-22T02:06:35;73077.66;;;-147.06;42.94
21594;BME280;10959;51.328;7.322;2023-06-22T02:09:07;73077.66;;;-147.06;43.15
21594;BME280;10959;51.328;7.322;2023-06-22T02:11:35;73073.56;;;-147.06;43.09
21594;BME280;10959;51.328;7.322;2023-06-22T02:14:04;73081.75;;;-147.06;43.35
21594;BME280;10959;51.328;7.322;2023-06-22T02:16:32;73073.56;;;-147.06;43.13
21594;BME280;10959;51.328;7.322;2023-06-22T02:19:01;73069.47;;;-147.06;43.10
21594;BME280;10959;51.328;7.322;2023-06-22T02:21:28;73065.38;;;-147.06;43.02
21594;BME280;10959;51.328;7.322;2023-06-22T02:23:55;73061.28;;;-147.06;43.32
21594;BME280;10959;51.328;7.322;2023-06-22T02:26:22;73065.38;;;-147.06;43.17
21594;BME280;10959;51.328;7.322;2023-06-22T02:28:49;73073.56;;;-147.06;43.13
21594;BME280;10959;51.328;7.322;2023-06-22T02:31:16;73061.28;;;-147.06;42.98
21594;BME280;10959;51.328;7.322;2023-06-22T02:33:43;73059.22;;;-147.06;43.04
21594;BME280;10959;51.328;7.322;2023-06-22T02:36:11;73057.19;;;-147.06;42.97
21594;BME280;10959;51.328;7.322;2023-06-22T02:38:38;73048.97;;;-147.06;43.13
21594;BME280;10959;51.328;7.322;2023-06-22T02:41:05;73057.19;;;-147.06;42.99
21594;BME280;10959;51.328;7.322;2023-06-22T02:43:32;73057.19;;;-147.06;43.07
21594;BME280;10959;51.328;7.322;2023-06-22T02:45:58;73057.19;;;-147.06;43.32
21594;BME280;10959;51.328;7.322;2023-06-22T02:48:25;73065.38;;;-147.06;43.57
21594;BME280;10959;51.328;7.322;2023-06-22T02:50:54;73073.56;;;-147.06;43.54
21594;BME280;10959;51.328;7.322;2023-06-22T02:53:22;73077.66;;;-147.06;43.42
21594;BME280;10959;51.328;7.322;2023-06-22T02:55:50;73069.47;;;-147.06;43.41
21594;BME280;10959;51.328;7.322;2023-06-22T02:58:18;73073.56;;;-147.06;43.06
21594;BME280;10959;51.328;7.322;2023-06-22T03:00:50;73075.59;;;-147.06;42.99
21594;BME280;10959;51.328;7.322;2023-06-22T03:03:18;73057.19;;;-147.06;43.05
21594;BME280;10959;51.328;7.322;2023-06-22T03:05:47;73053.09;;;-147.06;42.98
21594;BME280;10959;51.328;7.322;2023-06-22T03:08:13;73057.19;;;-147.06;42.96
21594;BME280;10959;51.328;7.322;2023-06-22T03:10:41;73051.03;;;-147.06;42.94
21594;BME280;10959;51.328;7.322;2023-06-22T03:13:08;73053.09;;;-147.06;43.15
21594;BME280;10959;51.328;7.322;2023-06-22T03:15:34;73044.88;;;-147.06;43.18
21594;BME280;10959;51.328;7.322;2023-06-22T03:18:02;73048.97;;;-147.06;43.08
21594;BME280;10959;51.328;7.322;2023-06-22T03:20:28;73053.09;;;-147.06;43.20
21594;BME280;10959;51.328;7.322;2023-06-22T03:22:59;73048.97;;;-147.06;43.04
21594;BME280;10959;51.328;7.322;2023-06-22T03:25:25;73051.03;;;-147.06;43.05
21594;BME280;10959;51.328;7.322;2023-06-22T03:27:53;73046.94;;;-147.06;43.01
21594;BME280;10959;51.328;7.322;2023-06-22T03:30:20;73048.97;;;-147.06;43.08
21594;BME280;10959;51.328;7.322;2023-06-22T03:32:46;73053.09;;;-147.06;43.24
21594;BME280;10959;51.328;7.322;2023-06-22T03:35:13;73053.09;;;-147.06;43.43
21594;BME280;10959;51.328;7.322;2023-06-22T03:37:39;73048.97;;;-147.06;43.74
21594;BME280;10959;51.328;7.322;2023-06-22T03:40:07;73053.09;;;-147.06;43.78
21594;BME280;10959;51.328;7.322;2023-06-22T03:42:34;73067.41;;;-147.06;43.73
21594;BME280;10959;51.328;7.322;2023-06-22T03:45:03;73071.50;;;-147.06;44.08
21594;BME280;10959;51.328;7.322;2023-06-22T03:47:29;73077.66;;;-147.06;44.25
21594;BME280;10959;51.328;7.322;2023-06-22T03:49:56;73096.09;;;-147.06;44.28
21594;BME280;10959;51.328;7.322;2023-06-22T03:52:22;73085.84;;;-147.06;44.18
21594;BME280;10959;51.328;7.322;2023-06-22T03:54:50;73085.84;;;-147.06;44.06
21594;BME280;10959;51.328;7.322;2023-06-22T03:57:17;73071.50;;;-147.06;44.64
21594;BME280;10959;51.328;7.322;2023-06-22T03:59:43;73083.81;;;-147.06;44.86
21594;BME280;10959;51.328;7.322;2023-06-22T04:02:11;73089.94;;;-147.06;44.95
21594;BME280;10959;51.328;7.322;2023-06-22T04:04:37;73096.09;;;-147.06;44.88
21594;BME280;10959;51.328;7.322;2023-06-22T04:07:05;73094.03;;;-147.06;44.79
21594;BME280;10959;51.328;7.322;2023-06-22T04:09:31;73094.03;;;-147.06;45.34
21594;BME280;10959;51.328;7.322;2023-06-22T04:11:58;73110.44;;;-147.06;45.96
21594;BME280;10959;51.328;7.322;2023-06-22T04:14:24;73149.34;;;-147.06;46.53
21594;BME280;10959;51.328;7.322;2023-06-22T04:16:51;73171.88;;;-147.06;46.92
21594;BME280;10959;51.328;7.322;2023-06-22T04:19:19;73182.13;;;-147.06;47.24
21594;BME280;10959;51.328;7.322;2023-06-22T04:21:45;73192.34;;;-147.06;47.44
21594;BME280;10959;51.328;7.322;2023-06-22T04:24:13;73200.53;;;-147.06;47.54
21594;BME280;10959;51.328;7.322;2023-06-22T04:26:40;73200.53;;;-147.06;47.70
21594;BME280;10959;51.328;7.322;2023-06-22T04:29:07;73196.44;;;-147.06;47.67
21594;BME280;10959;51.328;7.322;2023-06-22T04:31:34;73204.66;;;-147.06;47.74
21594;BME280;10959;51.328;7.322;2023-06-22T04:34:03;73202.59;;;-147.06;47.91
21594;BME280;10959;51.328;7.322;2023-06-22T04:36:34;73202.59;;;-147.06;47.98
21594;BME280;10959;51.328;7.322;2023-06-22T04:39:04;73204.66;;;-147.06;48.10
21594;BME280;10959;51.328;7.322;2023-06-22T04:41:31;73194.41;;;-147.06;48.22
21594;BME280;10959;51.328;7.322;2023-06-22T04:44:07;73186.22;;;-147.06;47.76
21594;BME280;10959;51.328;7.322;2023-06-22T04:46:34;73184.16;;;-147.06;47.88
21594;BME280;10959;51.328;7.322;2023-06-22T04:49:06;73192.34;;;-147.06;48.15
21594;BME280;10959;51.328;7.322;2023-06-22T04:51:39;73196.44;;;-147.06;48.03
21594;BME280;10959;51.328;7.322;2023-06-22T04:54:07;73184.16;;;-147.06;48.03
21594;BME280;10959;51.328;7.322;2023-06-22T04:56:34;73175.97;;;-147.06;47.80
21594;BME280;10959;51.328;7.322;2023-06-22T04:59:01;73163.69;;;-147.06;47.31
21594;BME280;10959;51.328;7.322;2023-06-22T05:01:28;73180.06;;;-147.06;47.78
21594;BME280;10959;51.328;7.322;2023-06-22T05:03:56;73169.81;;;-147.06;47.60
21594;BME280;10959;51.328;7.322;2023-06-22T05:06:23;73171.88;;;-147.06;47.51
21594;BME280;10959;51.328;7.322;2023-06-22T05:08:53;73178.00;;;-147.06;47.60
21594;BME280;10959;51.328;7.322;2023-06-22T05:11:22;73180.06;;;-147.06;47.47
21594;BME280;10959;51.328;7.322;2023-06-22T05:13:48;73171.88;;;-147.06;47.47
21594;BME280;10959;51.328;7.322;2023-06-22T05:16:15;73171.88;;;-147.06;47.66
21594;BME280;10959;51.328;7.322;2023-06-22T05:18:42;73175.97;;;-147.06;47.71
21594;BME280;10959;51.328;7.322;2023-06-22T05:21:08;73175.97;;;-147.06;47.89
21594;BME280;10959;51.328;7.322;2023-06-22T05:23:35;73167.78;;;-147.06;47.55
21594;BME280;10959;51.328;7.322;2023-06-22T05:26:03;73163.69;;;-147.06;47.43
21594;BME280;10959;51.328;7.322;2023-06-22T05:28:29;73175.97;;;-147.06;47.69
21594;BME280;10959;51.328;7.322;2023-06-22T05:30:56;73167.78;;;-147.06;47.48
21594;BME280;10959;51.328;7.322;2023-06-22T05:33:22;73159.59;;;-147.06;47.42
21594;BME280;10959;51.328;7.322;2023-06-22T05:35:49;73143.19;;;-147.06;47.23
21594;BME280;10959;51.328;7.322;2023-06-22T05:38:15;73137.06;;;-147.06;47.18
21594;BME280;10959;51.328;7.322;2023-06-22T05:40:41;73141.16;;;-147.06;47.21
21594;BME280;10959;51.328;7.322;2023-06-22T05:43:09;73135.00;;;-147.06;47.06
21594;BME280;10959;51.328;7.322;2023-06-22T05:45:35;73139.09;;;-147.06;47.31
21594;BME280;10959;51.328;7.322;2023-06-22T05:48:02;73139.09;;;-147.06;47.27
21594;BME280;10959;51.328;7.322;2023-06-22T05:50:28;73139.09;;;-147.06;47.10
21594;BME280;10959;51.328;7.322;2023-06-22T05:52:55;73141.16;;;-147.06;47.05
21594;BME280;10959;51.328;7.322;2023-06-22T05:55:21;73145.25;;;-147.06;47.13
21594;BME280;10959;51.328;7.322;2023-06-22T05:57:48;73135.00;;;-147.06;46.89
21594;BME280;10959;51.328;7.322;2023-06-22T06:00:16;73130.91;;;-147.06;46.98
21594;BME280;10959;51.328;7.322;2023-06-22T06:02:43;73130.91;;;-147.06;47.10
21594;BME280;10959;51.328;7.322;2023-06-22T06:05:10;73124.75;;;-147.06;46.93
21594;BME280;10959;51.328;7.322;2023-06-22T06:07:39;73110.44;;;-147.06;46.85
21594;BME280;10959;51.328;7.322;2023-06-22T06:10:06;73098.13;;;-147.06;46.94
21594;BME280;10959;51.328;7.322;2023-06-22T06:12:33;73085.84;;;-147.06;47.00
21594;BME280;10959;51.328;7.322;2023-06-22T06:14:59;73081.75;;;-147.06;46.89
21594;BME280;10959;51.328;7.322;2023-06-22T06:17:27;73077.66;;;-147.06;47.26
21594;BME280;10959;51.328;7.322;2023-06-22T06:19:53;73075.59;;;-147.06;47.50
21594;BME280;10959;51.328;7.322;2023-06-22T06:22:20;73067.41;;;-147.06;47.23
21594;BME280;10959;51.328;7.322;2023-06-22T06:24:48;73061.28;;;-147.06;47.40
21594;BME280;10959;51.328;7.322;2023-06-22T06:27:15;73057.19;;;-147.06;47.54
21594;BME280;10959;51.328;7.322;2023-06-22T06:29:43;73044.88;;;-147.06;47.29
21594;BME280;10959;51.328;7.322;2023-06-22T06:32:10;73038.75;;;-147.06;47.59
21594;BME280;10959;51.328;7.322;2023-06-22T06:34:38;73032.59;;;-147.06;47.55
21594;BME280;10959;51.328;7.322;2023-06-22T06:37:05;73048.97;;;-147.06;48.00
21594;BME280;10959;51.328;7.322;2023-06-22T06:39:32;73048.97;;;-147.06;47.97
21594;BME280;10959;51.328;7.322;2023-06-22T06:41:58;73055.13;;;-147.06;48.17
21594;BME280;10959;51.328;7.322;2023-06-22T06:44:25;73044.88;;;-147.06;47.96
21594;BME280;10959;51.328;7.322;2023-06-22T06:46:51;73032.59;;;-147.06;48.08
21594;BME280;10959;51.328;7.322;2023-06-22T06:49:19;73040.78;;;-147.06;48.36
21594;BME280;10959;51.328;7.322;2023-06-22T06:51:47;73028.50;;;-147.06;47.96
21594;BME280;10959;51.328;7.322;2023-06-22T06:54:13;73018.25;;;-147.06;48.09
21594;BME280;10959;51.328;7.322;2023-06-22T06:56:40;73020.31;;;-147.06;47.99
21594;BME280;10959;51.328;7.322;2023-06-22T06:59:13;73028.50;;;-147.06;48.63
21594;BME280;10959;51.328;7.322;2023-06-22T07:01:39;73036.69;;;-147.06;48.88
21594;BME280;10959;51.328;7.322;2023-06-22T07:04:06;73034.66;;;-147.06;49.30
21594;BME280;10959;51.328;7.322;2023-06-22T07:06:32;73032.59;;;-147.06;49.65
21594;BME280;10959;51.328;7.322;2023-06-22T07:09:00;73024.41;;;-147.06;49.57
21594;BME280;10959;51.328;7.322;2023-06-22T07:11:27;73024.41;;;-147.06;50.20
21594;BME280;10959;51.328;7.322;2023-06-22T07:13:53;73014.16;;;-147.06;49.97
21594;BME280;10959;51.328;7.322;2023-06-22T07:16:20;73008.03;;;-147.06;50.12
21594;BME280;10959;51.328;7.322;2023-06-22T07:18:46;72985.50;;;-147.06;49.96
21594;BME280;10959;51.328;7.322;2023-06-22T07:21:12;72971.16;;;-147.06;49.36
21594;BME280;10959;51.328;7.322;2023-06-22T07:23:39;72962.97;;;-147.06;49.54
21594;BME280;10959;51.328;7.322;2023-06-22T07:26:06;72960.91;;;-147.06;49.18
21594;BME280;10959;51.328;7.322;2023-06-22T07:28:33;72962.97;;;-147.06;49.40
21594;BME280;10959;51.328;7.322;2023-06-22T07:31:02;72967.06;;;-147.06;49.26
21594;BME280;10959;51.328;7.322;2023-06-22T07:33:29;72969.09;;;-147.06;49.14
21594;BME280;10959;51.328;7.322;2023-06-22T07:35:55;72954.78;;;-147.06;49.37
21594;BME280;10959;51.328;7.322;2023-06-22T07:38:22;72962.97;;;-147.06;49.75
21594;BME280;10959;51.328;7.322;2023-06-22T07:40:48;72958.88;;;-147.06;49.58
21594;BME280;10959;51.328;7.322;2023-06-22T07:43:17;72950.69;;;-147.06;49.47
21594;BME280;10959;51.328;7.322;2023-06-22T07:45:48;72954.78;;;-147.06;49.37
21594;BME280;10959;51.328;7.322;2023-06-22T07:48:17;72938.38;;;-147.06;49.48
21594;BME280;10959;51.328;7.322;2023-06-22T07:50:43;72926.09;;;-147.06;49.83
21594;BME280;10959;51.328;7.322;2023-06-22T07:53:10;72917.91;;;-147.06;49.48
21594;BME280;10959;51.328;7.322;2023-06-22T07:55:36;72911.75;;;-147.06;49.49
21594;BME280;10959;51.328;7.322;2023-06-22T07:58:02;72909.72;;;-147.06;49.36
21594;BME280;10959;51.328;7.322;2023-06-22T08:00:30;72901.53;;;-147.06;49.40
21594;BME280;10959;51.328;7.322;2023-06-22T08:02:58;72897.44;;;-147.06;49.10
21594;BME280;10959;51.328;7.322;2023-06-22T08:05:25;72889.25;;;-147.06;49.51
21594;BME280;10959;51.328;7.322;2023-06-22T08:07:51;72897.44;;;-147.06;49.31
21594;BME280;10959;51.328;7.322;2023-06-22T08:10:18;72905.63;;;-147.06;49.75
21594;BME280;10959;51.328;7.322;2023-06-22T08:12:45;72899.47;;;-147.06;49.88
21594;BME280;10959;51.328;7.322;2023-06-22T08:15:11;72887.19;;;-147.06;49.61
21594;BME280;10959;51.328;7.322;2023-06-22T08:17:39;72868.75;;;-147.06;49.62
21594;BME280;10959;51.328;7.322;2023-06-22T08:20:07;72815.50;;;-147.06;49.65
21594;BME280;10959;51.328;7.322;2023-06-22T08:22:37;72668.06;;;-147.06;47.40
21594;BME280;10959;51.328;7.322;2023-06-22T08:25:04;72702.88;;;-147.06;47.68
21594;BME280;10959;51.328;7.322;2023-06-22T08:27:31;72706.97;;;-147.06;48.61
21594;BME280;10959;51.328;7.322;2023-06-22T08:29:58;72680.34;;;-147.06;48.26
21594;BME280;10959;51.328;7.322;2023-06-22T08:32:25;72645.53;;;-147.06;47.56
21594;BME280;10959;51.328;7.322;2023-06-22T08:34:53;72606.63;;;-147.06;47.57
21594;BME280;10959;51.328;7.322;2023-06-22T08:37:20;72598.44;;;-147.06;46.92
21594;BME280;10959;51.328;7.322;2023-06-22T08:39:49;72596.38;;;-147.06;46.88
21594;BME280;10959;51.328;7.322;2023-06-22T08:42:15;72577.94;;;-147.06;46.48
21594;BME280;10959;51.328;7.322;2023-06-22T08:44:42;72577.94;;;-147.06;45.91
21594;BME280;10959;51.328;7.322;2023-06-22T08:47:08;72557.47;;;-147.06;46.04
21594;BME280;10959;51.328;7.322;2023-06-22T08:49:34;72565.66;;;-147.06;45.94
21594;BME280;10959;51.328;7.322;2023-06-22T08:52:02;72551.34;;;-147.06;46.11
21594;BME280;10959;51.328;7.322;2023-06-22T08:54:29;72549.28;;;-147.06;45.93
21594;BME280;10959;51.328;7.322;2023-06-22T08:56:59;72518.56;;;-147.06;46.03
21594;BME280;10959;51.328;7.322;2023-06-22T08:59:26;72483.75;;;-147.06;45.46
21594;BME280;10959;51.328;7.322;2023-06-22T09:01:52;72475.56;;;-147.06;45.24
21594;BME280;10959;51.328;7.322;2023-06-22T09:04:19;72455.09;;;-147.06;45.08
21594;BME280;10959;51.328;7.322;2023-06-22T09:06:47;72471.47;;;-147.06;45.25
21594;BME280;10959;51.328;7.322;2023-06-22T09:09:16;72446.91;;;-147.06;45.46
21594;BME280;10959;51.328;7.322;2023-06-22T09:11:42;72434.59;;;-147.06;44.90
21594;BME280;10959;51.328;7.322;2023-06-22T09:14:09;72418.22;;;-147.06;44.99
21594;BME280;10959;51.328;7.322;2023-06-22T09:16:36;72381.38;;;-147.06;44.57
21594;BME280;10959;51.328;7.322;2023-06-22T09:19:02;72362.94;;;-147.06;44.01
21594;BME280;10959;51.328;7.322;2023-06-22T09:21:29;72332.22;;;-147.06;43.34
21594;BME280;10959;51.328;7.322;2023-06-22T09:23:56;72332.22;;;-147.06;43.21
21594;BME280;10959;51.328;7.322;2023-06-22T09:26:24;72299.47;;;-147.06;43.29
21594;BME280;10959;51.328;7.322;2023-06-22T09:28:50;72289.22;;;-147.06;42.16
21594;BME280;10959;51.328;7.322;2023-06-22T09:31:16;72324.03;;;-147.06;41.93
21594;BME280;10959;51.328;7.322;2023-06-22T09:33:46;72317.88;;;-147.06;42.55
21594;BME280;10959;51.328;7.322;2023-06-22T09:36:13;72307.66;;;-147.06;42.93
21594;BME280;10959;51.328;7.322;2023-06-22T09:38:42;72315.84;;;-147.06;43.14
21594;BME280;10959;51.328;7.322;2023-06-22T09:41:08;72311.75;;;-147.06;43.27
21594;BME280;10959;51.328;7.322;2023-06-22T09:43:36;72297.41;;;-147.06;43.59
21594;BME280;10959;51.328;7.322;2023-06-22T09:46:02;72278.97;;;-147.06;43.59
21594;BME280;10959;51.328;7.322;2023-06-22T09:48:29;72238.03;;;-147.06;43.67
21594;BME280;10959;51.328;7.322;2023-06-22T09:50:56;72221.66;;;-147.06;43.56
21594;BME280;10959;51.328;7.322;2023-06-22T09:53:22;72242.13;;;-147.06;43.88
21594;BME280;10959;51.328;7.322;2023-06-22T09:55:49;72250.31;;;-147.06;44.06
21594;BME280;10959;51.328;7.322;2023-06-22T09:58:15;72254.41;;;-147.06;43.86
21594;BME280;10959;51.328;7.322;2023-06-22T10:00:43;72250.31;;;-147.06;43.88
21594;BME280;10959;51.328;7.322;2023-06-22T10:03:09;72256.44;;;-147.06;43.95
21594;BME280;10959;51.328;7.322;2023-06-22T10:05:36;72262.59;;;-147.06;44.43
21594;BME280;10959;51.328;7.322;2023-06-22T10:08:02;72250.31;;;-147.06;43.96
21594;BME280;10959;51.328;7.322;2023-06-22T10:10:29;72246.22;;;-147.06;43.78
21594;BME280;10959;51.328;7.322;2023-06-22T10:12:57;72266.69;;;-147.06;43.50
21594;BME280;10959;51.328;7.322;2023-06-22T10:15:24;72254.41;;;-147.06;43.90
21594;BME280;10959;51.328;7.322;2023-06-22T10:17:53;72223.69;;;-147.06;43.57
21594;BME280;10959;51.328;7.322;2023-06-22T10:20:20;72203.22;;;-147.06;43.39
21594;BME280;10959;51.328;7.322;2023-06-22T10:22:47;72201.16;;;-147.06;43.27
21594;BME280;10959;51.328;7.322;2023-06-22T10:25:13;72201.16;;;-147.06;43.57
21594;BME280;10959;51.328;7.322;2023-06-22T10:27:40;72221.66;;;-147.06;43.05
21594;BME280;10959;51.328;7.322;2023-06-22T10:30:07;72238.03;;;-147.06;42.79
21594;BME280;10959;51.328;7.322;2023-06-22T10:32:34;72250.31;;;-147.06;43.06
21594;BME280;10959;51.328;7.322;2023-06-22T10:35:03;72240.06;;;-147.06;42.85
21594;BME280;10959;51.328;7.322;2023-06-22T10:37:29;72252.34;;;-147.06;42.89
21594;BME280;10959;51.328;7.322;2023-06-22T10:39:56;72250.31;;;-147.06;42.90
21594;BME280;10959;51.328;7.322;2023-06-22T10:42:22;72254.41;;;-147.06;43.08
21594;BME280;10959;51.328;7.322;2023-06-22T10:44:49;72258.50;;;-147.06;43.13
21594;BME280;10959;51.328;7.322;2023-06-22T10:47:15;72260.56;;;-147.06;43.51
21594;BME280;10959;51.328;7.322;2023-06-22T10:49:42;72287.16;;;-147.06;43.94
21594;BME280;10959;51.328;7.322;2023-06-22T10:52:10;72291.25;;;-147.06;44.10
21594;BME280;10959;51.328;7.322;2023-06-22T10:54:37;72315.84;;;-147.06;44.10
21594;BME280;10959;51.328;7.322;2023-06-22T10:57:04;72336.31;;;-147.06;45.04
21594;BME280;10959;51.328;7.322;2023-06-22T10:59:31;72336.31;;;-147.06;44.99
21594;BME280;10959;51.328;7.322;2023-06-22T11:01:57;72340.41;;;-147.06;45.59
21594;BME280;10959;51.328;7.322;2023-06-22T11:04:24;72377.28;;;-147.06;46.01
21594;BME280;10959;51.328;7.322;2023-06-22T11:06:51;72385.47;;;-147.06;46.31
21594;BME280;10959;51.328;7.322;2023-06-22T11:09:19;72405.94;;;-147.06;46.73
21594;BME280;10959;51.328;7.322;2023-06-22T11:11:46;72401.84;;;-147.06;47.28
21594;BME280;10959;51.328;7.322;2023-06-22T11:14:13;72416.19;;;-147.06;47.89
21594;BME280;10959;51.328;7.322;2023-06-22T11:16:39;72426.41;;;-147.06;48.08
21594;BME280;10959;51.328;7.322;2023-06-22T11:19:06;72434.59;;;-147.06;48.84
21594;BME280;10959;51.328;7.322;2023-06-22T11:21:32;72448.94;;;-147.06;49.30
21594;BME280;10959;51.328;7.322;2023-06-22T11:23:59;72448.94;;;-147.06;49.02
21594;BME280;10959;51.328;7.322;2023-06-22T11:26:27;72434.59;;;-147.06;48.86
21594;BME280;10959;51.328;7.322;2023-06-22T11:28:54;72414.13;;;-147.06;49.10
21594;BME280;10959;51.328;7.322;2023-06-22T11:31:20;72405.94;;;-147.06;49.13
21594;BME280;10959;51.328;7.322;2023-06-22T11:33:47;72397.75;;;-147.06;48.89
21594;BME280;10959;51.328;7.322;2023-06-22T11:36:14;72389.56;;;-147.06;48.97
21594;BME280;10959;51.328;7.322;2023-06-22T11:38:41;72395.69;;;-147.06;49.39
21594;BME280;10959;51.328;7.322;2023-06-22T11:41:09;72397.75;;;-147.06;49.47
21594;BME280;10959;51.328;7.322;2023-06-22T11:43:37;72405.94;;;-147.06;49.61
21594;BME280;10959;51.328;7.322;2023-06-22T11:46:04;72428.47;;;-147.06;50.14
21594;BME280;10959;51.328;7.322;2023-06-22T11:48:30;72438.69;;;-147.06;50.61
21594;BME280;10959;51.328;7.322;2023-06-22T11:50:57;72455.09;;;-147.06;50.92
21594;BME280;10959;51.328;7.322;2023-06-22T11:53:25;72469.41;;;-147.06;51.01
21594;BME280;10959;51.328;7.322;2023-06-22T11:55:52;72479.66;;;-147.06;51.08
21594;BME280;10959;51.328;7.322;2023-06-22T11:58:19;72504.22;;;-147.06;51.45
21594;BME280;10959;51.328;7.322;2023-06-22T12:00:47;72520.63;;;-147.06;51.12
21594;BME280;10959;51.328;7.322;2023-06-22T12:03:14;72512.41;;;-147.06;51.24
21594;BME280;10959;51.328;7.322;2023-06-22T12:05:41;72504.22;;;-147.06;51.29
21594;BME280;10959;51.328;7.322;2023-06-22T12:08:08;72500.13;;;-147.06;51.23
21594;BME280;10959;51.328;7.322;2023-06-22T12:10:35;72512.41;;;-147.06;52.28
21594;BME280;10959;51.328;7.322;2023-06-22T12:13:01;72524.72;;;-147.06;53.54
21594;BME280;10959;51.328;7.322;2023-06-22T12:15:28;72528.81;;;-147.06;53.60
21594;BME280;10959;51.328;7.322;2023-06-22T12:17:56;72557.47;;;-147.06;54.73
21594;BME280;10959;51.328;7.322;2023-06-22T12:20:22;72588.19;;;-147.06;55.57
21594;BME280;10959;51.328;7.322;2023-06-22T12:22:49;72629.16;;;-147.06;57.18
21594;BME280;10959;51.328;7.322;2023-06-22T12:25:17;72647.56;;;-147.06;58.27
21594;BME280;10959;51.328;7.322;2023-06-22T12:27:43;72661.91;;;-147.06;58.66
21594;BME280;10959;51.328;7.322;2023-06-22T12:30:10;72627.09;;;-147.06;58.59
21594;BME280;10959;51.328;7.322;2023-06-22T12:32:36;72590.25;;;-147.06;58.24
21594;BME280;10959;51.328;7.322;2023-06-22T12:35:05;72590.25;;;-147.06;57.67
21594;BME280;10959;51.328;7.322;2023-06-22T12:37:37;72598.44;;;-147.06;57.35
21594;BME280;10959;51.328;7.322;2023-06-22T12:40:04;72606.63;;;-147.06;57.19
21594;BME280;10959;51.328;7.322;2023-06-22T12:42:31;72588.19;;;-147.06;57.21